sensor_id;sensor_type;location;lat;lon;timestamp;P1;durP1;ratioP1;P2;durP2;ratioP2
46729;SDS011;32476;50.002;11.854;2023-05-10T00:02:25;6.83;;;3.60;;
46729;SDS011;32476;50.002;11.854;2023-05-10T00:04:51;8.67;;;3.80;;
46729;SDS011;32476;50.002;11.854;2023-05-10T00:07:17;9.13;;;3.63;;
46729;SDS011;32476;50.002;11.854;2023-05-10T00:09:45;5.80;;;3.13;;
46729;SDS011;32476;50.002;11.854;2023-05-10T00:12:10;6.97;;;3.77;;
46729;SDS011;32476;50.002;11.854;2023-05-10T00:14:36;6.07;;;3.43;;
46729;SDS011;32476;50.002;11.854;2023-05-10T00:17:03;6.00;;;3.40;;
46729;SDS011;32476;50.002;11.854;2023-05-10T00:19:29;16.90;;;3.93;;
46729;SDS011;32476;50.002;11.854;2023-05-10T00:21:55;6.80;;;3.30;;
46729;SDS011;32476;50.002;11.854;2023-05-10T00:24:22;8.93;;;4.00;;
46729;SDS011;32476;50.002;11.854;2023-05-10T00:26:48;7.07;;;3.03;;
46729;SDS011;32476;50.002;11.854;2023-05-10T00:29:13;4.67;;;3.37;;
46729;SDS011;32476;50.002;11.854;2023-05-10T00:31:41;10.30;;;3.50;;
46729;SDS011;32476;50.002;11.854;2023-05-10T00:34:06;5.97;;;3.33;;
46729;SDS011;32476;50.002;11.854;2023-05-10T00:36:32;6.00;;;3.30;;
46729;SDS011;32476;50.002;11.854;2023-05-10T00:38:59;7.57;;;3.70;;
46729;SDS011;32476;50.002;11.854;2023-05-10T00:41:25;4.70;;;3.40;;
46729;SDS011;32476;50.002;11.854;2023-05-10T00:43:51;4.80;;;3.27;;
46729;SDS011;32476;50.002;11.854;2023-05-10T00:46:18;5.77;;;3.17;;
46729;SDS011;32476;50.002;11.854;2023-05-10T00:48:44;7.27;;;3.57;;
46729;SDS011;32476;50.002;11.854;2023-05-10T00:51:10;6.87;;;3.20;;
46729;SDS011;32476;50.002;11.854;2023-05-10T00:53:38;6.37;;;3.50;;
46729;SDS011;32476;50.002;11.854;2023-05-10T00:56:03;5.67;;;3.87;;
46729;SDS011;32476;50.002;11.854;2023-05-10T00:58:30;4.23;;;3.10;;
46729;SDS011;32476;50.002;11.854;2023-05-10T01:00:58;4.33;;;3.00;;
46729;SDS011;32476;50.002;11.854;2023-05-10T01:03:24;5.40;;;3.70;;
46729;SDS011;32476;50.002;11.854;2023-05-10T01:05:51;5.97;;;3.07;;
46729;SDS011;32476;50.002;11.854;2023-05-10T01:08:18;6.37;;;3.40;;
46729;SDS011;32476;50.002;11.854;2023-05-10T01:10:45;7.43;;;3.63;;
46729;SDS011;32476;50.002;11.854;2023-05-10T01:13:11;7.37;;;3.53;;
46729;SDS011;32476;50.002;11.854;2023-05-10T01:15:39;4.73;;;3.30;;
46729;SDS011;32476;50.002;11.854;2023-05-10T01:18:05;4.43;;;3.20;;
46729;SDS011;32476;50.002;11.854;2023-05-10T01:20:35;6.43;;;3.70;;
46729;SDS011;32476;50.002;11.854;2023-05-10T01:23:20;4.57;;;3.30;;
46729;SDS011;32476;50.002;11.854;2023-05-10T01:26:33;7.03;;;3.40;;
46729;SDS011;32476;50.002;11.854;2023-05-10T01:35:35;5.17;;;3.33;;
46729;SDS011;32476;50.002;11.854;2023-05-10T01:38:29;6.87;;;3.77;;
46729;SDS011;32476;50.002;11.854;2023-05-10T01:41:13;6.07;;;3.47;;
46729;SDS011;32476;50.002;11.854;2023-05-10T01:43:49;6.67;;;3.63;;
46729;SDS011;32476;50.002;11.854;2023-05-10T01:46:35;9.27;;;3.30;;
46729;SDS011;32476;50.002;11.854;2023-05-10T01:49:03;5.13;;;3.10;;
46729;SDS011;32476;50.002;11.854;2023-05-10T01:51:51;5.80;;;3.90;;
46729;SDS011;32476;50.002;11.854;2023-05-10T01:54:20;5.07;;;3.40;;
46729;SDS011;32476;50.002;11.854;2023-05-10T01:56:50;5.73;;;3.63;;
46729;SDS011;32476;50.002;11.854;2023-05-10T01:59:21;6.33;;;3.07;;
46729;SDS011;32476;50.002;11.854;2023-05-10T02:01:48;10.03;;;3.27;;
46729;SDS011;32476;50.002;11.854;2023-05-10T02:04:16;6.90;;;3.33;;
46729;SDS011;32476;50.002;11.854;2023-05-10T02:06:44;3.90;;;2.80;;
46729;SDS011;32476;50.002;11.854;2023-05-10T02:09:13;5.70;;;4.13;;
46729;SDS011;32476;50.002;11.854;2023-05-10T02:11:41;4.87;;;3.73;;
46729;SDS011;32476;50.002;11.854;2023-05-10T02:14:09;5.73;;;3.93;;
46729;SDS011;32476;50.002;11.854;2023-05-10T02:16:37;4.77;;;3.27;;
46729;SDS011;32476;50.002;11.854;2023-05-10T02:19:04;8.63;;;3.37;;
46729;SDS011;32476;50.002;11.854;2023-05-10T02:21:33;6.00;;;3.57;;
46729;SDS011;32476;50.002;11.854;2023-05-10T02:24:01;7.60;;;3.27;;
46729;SDS011;32476;50.002;11.854;2023-05-10T02:26:29;7.47;;;3.50;;
46729;SDS011;32476;50.002;11.854;2023-05-10T02:28:56;9.90;;;4.20;;
46729;SDS011;32476;50.002;11.854;2023-05-10T02:31:25;4.53;;;3.20;;
46729;SDS011;32476;50.002;11.854;2023-05-10T02:33:51;7.17;;;3.47;;
46729;SDS011;32476;50.002;11.854;2023-05-10T02:36:18;4.27;;;3.30;;
46729;SDS011;32476;50.002;11.854;2023-05-10T02:38:47;6.47;;;3.50;;
46729;SDS011;32476;50.002;11.854;2023-05-10T02:41:15;6.27;;;3.60;;
46729;SDS011;32476;50.002;11.854;2023-05-10T02:43:42;7.47;;;3.97;;
46729;SDS011;32476;50.002;11.854;2023-05-10T02:46:10;5.57;;;3.60;;
46729;SDS011;32476;50.002;11.854;2023-05-10T02:48:36;7.93;;;3.80;;
46729;SDS011;32476;50.002;11.854;2023-05-10T02:51:04;5.63;;;3.77;;
46729;SDS011;32476;50.002;11.854;2023-05-10T02:53:34;5.23;;;3.53;;
46729;SDS011;32476;50.002;11.854;2023-05-10T02:56:10;8.47;;;3.87;;
46729;SDS011;32476;50.002;11.854;2023-05-10T02:58:40;6.60;;;3.43;;
46729;SDS011;32476;50.002;11.854;2023-05-10T03:01:06;5.63;;;3.30;;
46729;SDS011;32476;50.002;11.854;2023-05-10T03:03:33;5.33;;;3.37;;
46729;SDS011;32476;50.002;11.854;2023-05-10T03:06:00;5.27;;;3.97;;
46729;SDS011;32476;50.002;11.854;2023-05-10T03:08:26;4.97;;;3.53;;
46729;SDS011;32476;50.002;11.854;2023-05-10T03:16:56;5.43;;;3.93;;
46729;SDS011;32476;50.002;11.854;2023-05-10T03:19:32;8.20;;;4.13;;
46729;SDS011;32476;50.002;11.854;2023-05-10T03:22:07;8.63;;;3.70;;
46729;SDS011;32476;50.002;11.854;2023-05-10T03:24:37;7.70;;;3.87;;
46729;SDS011;32476;50.002;11.854;2023-05-10T03:27:06;5.97;;;3.77;;
46729;SDS011;32476;50.002;11.854;2023-05-10T03:29:33;5.90;;;3.73;;
46729;SDS011;32476;50.002;11.854;2023-05-10T03:32:01;5.73;;;4.30;;
46729;SDS011;32476;50.002;11.854;2023-05-10T03:34:27;11.43;;;4.53;;
46729;SDS011;32476;50.002;11.854;2023-05-10T03:36:56;6.97;;;3.97;;
46729;SDS011;32476;50.002;11.854;2023-05-10T03:39:23;5.23;;;3.80;;
46729;SDS011;32476;50.002;11.854;2023-05-10T03:41:50;5.47;;;3.80;;
46729;SDS011;32476;50.002;11.854;2023-05-10T03:44:15;10.93;;;3.83;;
46729;SDS011;32476;50.002;11.854;2023-05-10T03:46:43;8.83;;;4.20;;
46729;SDS011;32476;50.002;11.854;2023-05-10T03:49:08;8.00;;;5.43;;
46729;SDS011;32476;50.002;11.854;2023-05-10T03:51:34;7.50;;;5.10;;
46729;SDS011;32476;50.002;11.854;2023-05-10T03:54:01;6.17;;;4.53;;
46729;SDS011;32476;50.002;11.854;2023-05-10T03:56:27;8.00;;;4.33;;
46729;SDS011;32476;50.002;11.854;2023-05-10T03:58:53;8.67;;;4.13;;
46729;SDS011;32476;50.002;11.854;2023-05-10T04:01:20;5.33;;;3.70;;
46729;SDS011;32476;50.002;11.854;2023-05-10T04:03:46;6.07;;;4.27;;
46729;SDS011;32476;50.002;11.854;2023-05-10T04:06:12;5.33;;;4.00;;
46729;SDS011;32476;50.002;11.854;2023-05-10T04:08:39;7.63;;;4.53;;
46729;SDS011;32476;50.002;11.854;2023-05-10T04:11:09;4.93;;;4.13;;
46729;SDS011;32476;50.002;11.854;2023-05-10T04:13:36;4.80;;;3.90;;
46729;SDS011;32476;50.002;11.854;2023-05-10T04:16:04;6.07;;;3.97;;
46729;SDS011;32476;50.002;11.854;2023-05-10T04:18:30;6.53;;;4.53;;
46729;SDS011;32476;50.002;11.854;2023-05-10T04:20:56;10.47;;;4.43;;
46729;SDS011;32476;50.002;11.854;2023-05-10T04:23:24;8.27;;;3.93;;
46729;SDS011;32476;50.002;11.854;2023-05-10T04:25:51;6.60;;;4.00;;
46729;SDS011;32476;50.002;11.854;2023-05-10T04:28:17;7.80;;;4.30;;
46729;SDS011;32476;50.002;11.854;2023-05-10T04:30:44;6.40;;;3.90;;
46729;SDS011;32476;50.002;11.854;2023-05-10T04:33:10;10.60;;;4.13;;
46729;SDS011;32476;50.002;11.854;2023-05-10T04:35:36;7.03;;;3.83;;
46729;SDS011;32476;50.002;11.854;2023-05-10T04:38:03;5.67;;;3.73;;
46729;SDS011;32476;50.002;11.854;2023-05-10T04:40:29;6.80;;;4.00;;
46729;SDS011;32476;50.002;11.854;2023-05-10T04:42:55;5.63;;;4.33;;
46729;SDS011;32476;50.002;11.854;2023-05-10T04:45:22;5.57;;;4.70;;
46729;SDS011;32476;50.002;11.854;2023-05-10T04:47:48;5.93;;;4.10;;
46729;SDS011;32476;50.002;11.854;2023-05-10T04:50:14;7.33;;;4.20;;
46729;SDS011;32476;50.002;11.854;2023-05-10T04:52:42;7.67;;;5.10;;
46729;SDS011;32476;50.002;11.854;2023-05-10T04:55:07;9.27;;;5.30;;
46729;SDS011;32476;50.002;11.854;2023-05-10T04:57:35;7.83;;;5.10;;
46729;SDS011;32476;50.002;11.854;2023-05-10T05:00:02;8.60;;;5.17;;
46729;SDS011;32476;50.002;11.854;2023-05-10T05:02:28;8.20;;;4.80;;
46729;SDS011;32476;50.002;11.854;2023-05-10T05:04:55;9.03;;;5.00;;
46729;SDS011;32476;50.002;11.854;2023-05-10T05:07:24;8.23;;;4.73;;
46729;SDS011;32476;50.002;11.854;2023-05-10T05:09:50;7.13;;;4.50;;
46729;SDS011;32476;50.002;11.854;2023-05-10T05:12:16;8.23;;;4.90;;
46729;SDS011;32476;50.002;11.854;2023-05-10T05:14:43;6.13;;;5.00;;
46729;SDS011;32476;50.002;11.854;2023-05-10T05:17:09;6.37;;;5.03;;
46729;SDS011;32476;50.002;11.854;2023-05-10T05:19:34;8.73;;;4.73;;
46729;SDS011;32476;50.002;11.854;2023-05-10T05:22:02;10.70;;;5.10;;
46729;SDS011;32476;50.002;11.854;2023-05-10T05:24:28;8.33;;;5.37;;
46729;SDS011;32476;50.002;11.854;2023-05-10T05:26:54;8.20;;;4.60;;
46729;SDS011;32476;50.002;11.854;2023-05-10T05:29:21;7.63;;;5.13;;
46729;SDS011;32476;50.002;11.854;2023-05-10T05:31:47;8.67;;;4.87;;
46729;SDS011;32476;50.002;11.854;2023-05-10T05:34:13;8.83;;;5.07;;
46729;SDS011;32476;50.002;11.854;2023-05-10T05:36:40;10.03;;;5.23;;
46729;SDS011;32476;50.002;11.854;2023-05-10T05:39:05;9.13;;;5.40;;
46729;SDS011;32476;50.002;11.854;2023-05-10T05:41:31;9.43;;;5.17;;
46729;SDS011;32476;50.002;11.854;2023-05-10T05:43:58;6.43;;;5.33;;
46729;SDS011;32476;50.002;11.854;2023-05-10T05:46:24;9.87;;;5.37;;
46729;SDS011;32476;50.002;11.854;2023-05-10T05:48:50;9.53;;;5.63;;
46729;SDS011;32476;50.002;11.854;2023-05-10T05:51:18;7.10;;;5.70;;
46729;SDS011;32476;50.002;11.854;2023-05-10T05:53:44;9.10;;;5.53;;
46729;SDS011;32476;50.002;11.854;2023-05-10T05:56:10;13.30;;;6.17;;
46729;SDS011;32476;50.002;11.854;2023-05-10T05:58:38;8.47;;;5.33;;
46729;SDS011;32476;50.002;11.854;2023-05-10T06:01:03;10.17;;;5.63;;
46729;SDS011;32476;50.002;11.854;2023-05-10T06:03:29;9.70;;;6.07;;
46729;SDS011;32476;50.002;11.854;2023-05-10T06:05:56;8.60;;;6.03;;
46729;SDS011;32476;50.002;11.854;2023-05-10T06:08:22;6.20;;;5.20;;
46729;SDS011;32476;50.002;11.854;2023-05-10T06:10:48;7.17;;;6.00;;
46729;SDS011;32476;50.002;11.854;2023-05-10T06:13:16;7.97;;;5.87;;
46729;SDS011;32476;50.002;11.854;2023-05-10T06:15:41;7.87;;;5.53;;
46729;SDS011;32476;50.002;11.854;2023-05-10T06:18:07;7.17;;;5.57;;
46729;SDS011;32476;50.002;11.854;2023-05-10T06:20:34;8.97;;;5.67;;
46729;SDS011;32476;50.002;11.854;2023-05-10T06:23:00;9.30;;;6.57;;
46729;SDS011;32476;50.002;11.854;2023-05-10T06:25:26;9.13;;;6.40;;
46729;SDS011;32476;50.002;11.854;2023-05-10T06:27:53;8.20;;;6.13;;
46729;SDS011;32476;50.002;11.854;2023-05-10T06:30:23;7.17;;;5.90;;
46729;SDS011;32476;50.002;11.854;2023-05-10T06:32:54;7.57;;;6.00;;
46729;SDS011;32476;50.002;11.854;2023-05-10T06:35:20;7.60;;;6.13;;
46729;SDS011;32476;50.002;11.854;2023-05-10T06:37:46;8.50;;;6.70;;
46729;SDS011;32476;50.002;11.854;2023-05-10T06:40:13;12.07;;;7.33;;
46729;SDS011;32476;50.002;11.854;2023-05-10T06:42:39;8.53;;;6.50;;
46729;SDS011;32476;50.002;11.854;2023-05-10T06:45:05;10.10;;;7.27;;
46729;SDS011;32476;50.002;11.854;2023-05-10T06:47:33;9.70;;;7.37;;
46729;SDS011;32476;50.002;11.854;2023-05-10T06:49:59;8.73;;;7.03;;
46729;SDS011;32476;50.002;11.854;2023-05-10T06:52:25;8.40;;;6.47;;
46729;SDS011;32476;50.002;11.854;2023-05-10T06:54:52;7.90;;;7.00;;
46729;SDS011;32476;50.002;11.854;2023-05-10T06:57:17;10.53;;;8.43;;
46729;SDS011;32476;50.002;11.854;2023-05-10T06:59:43;11.00;;;7.30;;
46729;SDS011;32476;50.002;11.854;2023-05-10T07:02:11;8.97;;;6.90;;
46729;SDS011;32476;50.002;11.854;2023-05-10T07:04:36;9.33;;;7.50;;
46729;SDS011;32476;50.002;11.854;2023-05-10T07:07:02;10.30;;;7.37;;
46729;SDS011;32476;50.002;11.854;2023-05-10T07:09:29;10.67;;;8.10;;
46729;SDS011;32476;50.002;11.854;2023-05-10T07:11:55;10.20;;;7.03;;
46729;SDS011;32476;50.002;11.854;2023-05-10T07:14:22;9.77;;;7.03;;
46729;SDS011;32476;50.002;11.854;2023-05-10T07:16:49;8.27;;;6.67;;
46729;SDS011;32476;50.002;11.854;2023-05-10T07:19:15;8.73;;;6.73;;
46729;SDS011;32476;50.002;11.854;2023-05-10T07:21:41;10.07;;;6.90;;
46729;SDS011;32476;50.002;11.854;2023-05-10T07:24:09;8.50;;;6.20;;
46729;SDS011;32476;50.002;11.854;2023-05-10T07:26:35;11.27;;;7.20;;
46729;SDS011;32476;50.002;11.854;2023-05-10T07:29:02;8.73;;;7.13;;
46729;SDS011;32476;50.002;11.854;2023-05-10T07:31:29;8.43;;;7.13;;
46729;SDS011;32476;50.002;11.854;2023-05-10T07:33:55;8.47;;;7.03;;
46729;SDS011;32476;50.002;11.854;2023-05-10T07:36:21;9.53;;;7.20;;
46729;SDS011;32476;50.002;11.854;2023-05-10T07:38:49;8.03;;;6.27;;
46729;SDS011;32476;50.002;11.854;2023-05-10T07:41:14;9.07;;;6.70;;
46729;SDS011;32476;50.002;11.854;2023-05-10T07:43:40;9.80;;;6.43;;
46729;SDS011;32476;50.002;11.854;2023-05-10T07:46:08;7.50;;;6.70;;
46729;SDS011;32476;50.002;11.854;2023-05-10T07:48:36;12.47;;;6.53;;
46729;SDS011;32476;50.002;11.854;2023-05-10T07:51:02;7.67;;;5.63;;
46729;SDS011;32476;50.002;11.854;2023-05-10T07:53:29;6.10;;;5.37;;
46729;SDS011;32476;50.002;11.854;2023-05-10T07:55:58;9.97;;;6.03;;
46729;SDS011;32476;50.002;11.854;2023-05-10T07:58:24;8.97;;;7.13;;
46729;SDS011;32476;50.002;11.854;2023-05-10T08:00:52;8.67;;;6.10;;
46729;SDS011;32476;50.002;11.854;2023-05-10T08:03:18;14.70;;;6.80;;
46729;SDS011;32476;50.002;11.854;2023-05-10T08:05:43;7.57;;;6.50;;
46729;SDS011;32476;50.002;11.854;2023-05-10T08:08:11;6.83;;;5.73;;
46729;SDS011;32476;50.002;11.854;2023-05-10T08:10:37;7.27;;;5.80;;
46729;SDS011;32476;50.002;11.854;2023-05-10T08:13:02;6.83;;;5.90;;
46729;SDS011;32476;50.002;11.854;2023-05-10T08:15:30;9.43;;;6.60;;
46729;SDS011;32476;50.002;11.854;2023-05-10T08:17:55;8.60;;;6.03;;
46729;SDS011;32476;50.002;11.854;2023-05-10T08:20:21;7.33;;;5.27;;
46729;SDS011;32476;50.002;11.854;2023-05-10T08:22:49;6.63;;;5.47;;
46729;SDS011;32476;50.002;11.854;2023-05-10T08:25:15;6.13;;;4.83;;
46729;SDS011;32476;50.002;11.854;2023-05-10T08:27:41;6.63;;;5.30;;
46729;SDS011;32476;50.002;11.854;2023-05-10T08:30:09;7.10;;;5.53;;
46729;SDS011;32476;50.002;11.854;2023-05-10T08:32:35;6.13;;;4.90;;
46729;SDS011;32476;50.002;11.854;2023-05-10T08:35:03;6.13;;;5.40;;
46729;SDS011;32476;50.002;11.854;2023-05-10T08:37:30;6.27;;;4.77;;
46729;SDS011;32476;50.002;11.854;2023-05-10T08:39:57;5.37;;;4.87;;
46729;SDS011;32476;50.002;11.854;2023-05-10T08:42:23;8.00;;;4.30;;
46729;SDS011;32476;50.002;11.854;2023-05-10T08:44:55;5.80;;;5.20;;
46729;SDS011;32476;50.002;11.854;2023-05-10T08:47:22;5.97;;;3.93;;
46729;SDS011;32476;50.002;11.854;2023-05-10T08:49:48;4.50;;;4.10;;
46729;SDS011;32476;50.002;11.854;2023-05-10T08:52:17;2.33;;;2.00;;
46729;SDS011;32476;50.002;11.854;2023-05-10T08:54:44;2.37;;;2.10;;
46729;SDS011;32476;50.002;11.854;2023-05-10T08:57:10;2.60;;;2.37;;
46729;SDS011;32476;50.002;11.854;2023-05-10T08:59:38;2.60;;;2.20;;
46729;SDS011;32476;50.002;11.854;2023-05-10T09:02:05;1.93;;;1.23;;
46729;SDS011;32476;50.002;11.854;2023-05-10T09:04:31;3.33;;;1.20;;
46729;SDS011;32476;50.002;11.854;2023-05-10T09:06:58;1.40;;;1.00;;
46729;SDS011;32476;50.002;11.854;2023-05-10T09:09:24;0.93;;;0.80;;
46729;SDS011;32476;50.002;11.854;2023-05-10T09:11:51;0.80;;;0.80;;
46729;SDS011;32476;50.002;11.854;2023-05-10T09:14:19;0.87;;;0.87;;
46729;SDS011;32476;50.002;11.854;2023-05-10T09:16:45;0.70;;;0.70;;
46729;SDS011;32476;50.002;11.854;2023-05-10T09:19:11;1.43;;;0.93;;
46729;SDS011;32476;50.002;11.854;2023-05-10T09:21:39;1.03;;;0.90;;
46729;SDS011;32476;50.002;11.854;2023-05-10T09:24:05;2.97;;;1.80;;
46729;SDS011;32476;50.002;11.854;2023-05-10T09:26:32;4.13;;;1.90;;
46729;SDS011;32476;50.002;11.854;2023-05-10T09:29:00;1.90;;;1.37;;
46729;SDS011;32476;50.002;11.854;2023-05-10T09:34:18;1.60;;;1.50;;
46729;SDS011;32476;50.002;11.854;2023-05-10T09:36:56;1.33;;;1.23;;
46729;SDS011;32476;50.002;11.854;2023-05-10T09:39:31;2.73;;;1.33;;
46729;SDS011;32476;50.002;11.854;2023-05-10T09:42:02;1.83;;;1.50;;
46729;SDS011;32476;50.002;11.854;2023-05-10T09:44:32;2.40;;;1.53;;
46729;SDS011;32476;50.002;11.854;2023-05-10T09:46:59;2.30;;;1.00;;
46729;SDS011;32476;50.002;11.854;2023-05-10T09:49:25;2.53;;;1.10;;
46729;SDS011;32476;50.002;11.854;2023-05-10T09:51:59;1.33;;;1.00;;
46729;SDS011;32476;50.002;11.854;2023-05-10T09:54:29;0.90;;;0.90;;
46729;SDS011;32476;50.002;11.854;2023-05-10T09:56:57;1.20;;;1.03;;
46729;SDS011;32476;50.002;11.854;2023-05-10T09:59:24;3.77;;;1.30;;
46729;SDS011;32476;50.002;11.854;2023-05-10T10:01:52;3.53;;;1.20;;
46729;SDS011;32476;50.002;11.854;2023-05-10T10:04:22;1.70;;;0.80;;
46729;SDS011;32476;50.002;11.854;2023-05-10T10:06:58;1.07;;;0.97;;
46729;SDS011;32476;50.002;11.854;2023-05-10T10:09:28;0.90;;;0.80;;
46729;SDS011;32476;50.002;11.854;2023-05-10T10:11:53;3.00;;;0.87;;
46729;SDS011;32476;50.002;11.854;2023-05-10T10:14:21;2.07;;;0.80;;
46729;SDS011;32476;50.002;11.854;2023-05-10T10:16:49;0.97;;;0.80;;
46729;SDS011;32476;50.002;11.854;2023-05-10T10:19:16;0.73;;;0.70;;
46729;SDS011;32476;50.002;11.854;2023-05-10T10:21:46;1.00;;;0.80;;
46729;SDS011;32476;50.002;11.854;2023-05-10T10:24:16;2.17;;;1.00;;
46729;SDS011;32476;50.002;11.854;2023-05-10T10:26:42;1.83;;;1.00;;
46729;SDS011;32476;50.002;11.854;2023-05-10T10:29:16;2.30;;;1.20;;
46729;SDS011;32476;50.002;11.854;2023-05-10T10:32:09;1.77;;;1.20;;
46729;SDS011;32476;50.002;11.854;2023-05-10T10:34:55;1.63;;;1.20;;
46729;SDS011;32476;50.002;11.854;2023-05-10T10:37:23;1.70;;;1.03;;
46729;SDS011;32476;50.002;11.854;2023-05-10T10:40:25;2.10;;;1.23;;
46729;SDS011;32476;50.002;11.854;2023-05-10T10:42:57;1.30;;;1.20;;
46729;SDS011;32476;50.002;11.854;2023-05-10T10:45:24;2.97;;;1.43;;
46729;SDS011;32476;50.002;11.854;2023-05-10T10:50:58;1.80;;;1.70;;
46729;SDS011;32476;50.002;11.854;2023-05-10T10:53:26;2.57;;;1.60;;
46729;SDS011;32476;50.002;11.854;2023-05-10T10:56:05;3.17;;;2.77;;
46729;SDS011;32476;50.002;11.854;2023-05-10T10:58:36;1.63;;;1.53;;
46729;SDS011;32476;50.002;11.854;2023-05-10T11:01:15;1.40;;;1.30;;
46729;SDS011;32476;50.002;11.854;2023-05-10T11:08:59;1.33;;;1.10;;
46729;SDS011;32476;50.002;11.854;2023-05-10T11:11:34;3.57;;;1.10;;
46729;SDS011;32476;50.002;11.854;2023-05-10T11:14:04;1.73;;;1.10;;
46729;SDS011;32476;50.002;11.854;2023-05-10T11:16:42;1.67;;;1.00;;
46729;SDS011;32476;50.002;11.854;2023-05-10T11:19:13;1.03;;;0.80;;
46729;SDS011;32476;50.002;11.854;2023-05-10T11:21:46;1.13;;;0.90;;
46729;SDS011;32476;50.002;11.854;2023-05-10T11:24:21;2.33;;;0.87;;
46729;SDS011;32476;50.002;11.854;2023-05-10T11:26:53;1.55;;;1.17;;
46729;SDS011;32476;50.002;11.854;2023-05-10T11:29:19;4.55;;;4.15;;
46729;SDS011;32476;50.002;11.854;2023-05-10T11:31:46;1.40;;;0.80;;
46729;SDS011;32476;50.002;11.854;2023-05-10T11:34:27;2.67;;;0.90;;
46729;SDS011;32476;50.002;11.854;2023-05-10T11:37:00;0.85;;;0.70;;
46729;SDS011;32476;50.002;11.854;2023-05-10T11:39:29;3.13;;;0.80;;
46729;SDS011;32476;50.002;11.854;2023-05-10T11:41:56;2.28;;;0.60;;
46729;SDS011;32476;50.002;11.854;2023-05-10T11:44:23;3.42;;;0.90;;
46729;SDS011;32476;50.002;11.854;2023-05-10T11:46:57;1.30;;;0.80;;
46729;SDS011;32476;50.002;11.854;2023-05-10T11:49:26;0.93;;;0.68;;
46729;SDS011;32476;50.002;11.854;2023-05-10T11:51:52;0.60;;;0.60;;
46729;SDS011;32476;50.002;11.854;2023-05-10T11:54:19;1.30;;;0.60;;
46729;SDS011;32476;50.002;11.854;2023-05-10T11:56:45;0.70;;;0.65;;
46729;SDS011;32476;50.002;11.854;2023-05-10T11:59:13;0.70;;;0.60;;
46729;SDS011;32476;50.002;11.854;2023-05-10T12:01:41;0.82;;;0.73;;
46729;SDS011;32476;50.002;11.854;2023-05-10T12:04:07;2.70;;;0.80;;
46729;SDS011;32476;50.002;11.854;2023-05-10T12:06:35;3.40;;;0.70;;
46729;SDS011;32476;50.002;11.854;2023-05-10T12:09:07;1.35;;;0.77;;
46729;SDS011;32476;50.002;11.854;2023-05-10T12:11:38;3.53;;;0.70;;
46729;SDS011;32476;50.002;11.854;2023-05-10T12:14:09;2.78;;;0.80;;
46729;SDS011;32476;50.002;11.854;2023-05-10T12:16:35;0.95;;;0.85;;
46729;SDS011;32476;50.002;11.854;2023-05-10T12:19:01;1.15;;;1.00;;
46729;SDS011;32476;50.002;11.854;2023-05-10T12:21:29;1.33;;;0.80;;
46729;SDS011;32476;50.002;11.854;2023-05-10T12:24:01;2.47;;;0.90;;
46729;SDS011;32476;50.002;11.854;2023-05-10T12:26:29;1.60;;;0.70;;
46729;SDS011;32476;50.002;11.854;2023-05-10T12:29:00;1.55;;;0.93;;
46729;SDS011;32476;50.002;11.854;2023-05-10T12:34:32;1.60;;;1.10;;
46729;SDS011;32476;50.002;11.854;2023-05-10T12:37:01;3.70;;;1.15;;
46729;SDS011;32476;50.002;11.854;2023-05-10T12:39:40;1.13;;;1.03;;
46729;SDS011;32476;50.002;11.854;2023-05-10T12:42:09;1.73;;;1.10;;
46729;SDS011;32476;50.002;11.854;2023-05-10T12:44:35;5.00;;;2.13;;
46729;SDS011;32476;50.002;11.854;2023-05-10T12:47:01;1.47;;;1.37;;
46729;SDS011;32476;50.002;11.854;2023-05-10T12:49:28;1.30;;;1.20;;
46729;SDS011;32476;50.002;11.854;2023-05-10T12:51:54;1.30;;;1.10;;
46729;SDS011;32476;50.002;11.854;2023-05-10T12:54:22;1.73;;;1.00;;
46729;SDS011;32476;50.002;11.854;2023-05-10T12:56:49;1.93;;;1.10;;
46729;SDS011;32476;50.002;11.854;2023-05-10T12:59:15;3.87;;;1.00;;
46729;SDS011;32476;50.002;11.854;2023-05-10T13:01:41;1.20;;;1.03;;
46729;SDS011;32476;50.002;11.854;2023-05-10T13:04:08;1.57;;;1.00;;
46729;SDS011;32476;50.002;11.854;2023-05-10T13:06:34;1.80;;;1.17;;
46729;SDS011;32476;50.002;11.854;2023-05-10T13:09:00;1.57;;;0.80;;
46729;SDS011;32476;50.002;11.854;2023-05-10T13:11:27;2.13;;;1.03;;
46729;SDS011;32476;50.002;11.854;2023-05-10T13:13:53;2.17;;;1.20;;
46729;SDS011;32476;50.002;11.854;2023-05-10T13:16:19;1.30;;;1.00;;
46729;SDS011;32476;50.002;11.854;2023-05-10T13:18:46;2.53;;;0.87;;
46729;SDS011;32476;50.002;11.854;2023-05-10T13:21:12;0.60;;;0.60;;
46729;SDS011;32476;50.002;11.854;2023-05-10T13:23:37;0.77;;;0.70;;
46729;SDS011;32476;50.002;11.854;2023-05-10T13:26:05;1.73;;;0.60;;
46729;SDS011;32476;50.002;11.854;2023-05-10T13:28:30;1.97;;;1.10;;
46729;SDS011;32476;50.002;11.854;2023-05-10T13:30:56;1.10;;;1.00;;
46729;SDS011;32476;50.002;11.854;2023-05-10T13:33:24;3.00;;;1.30;;
46729;SDS011;32476;50.002;11.854;2023-05-10T13:35:49;1.83;;;1.23;;
46729;SDS011;32476;50.002;11.854;2023-05-10T13:38:15;1.30;;;1.20;;
46729;SDS011;32476;50.002;11.854;2023-05-10T13:40:43;1.57;;;1.20;;
46729;SDS011;32476;50.002;11.854;2023-05-10T13:43:08;1.57;;;0.80;;
46729;SDS011;32476;50.002;11.854;2023-05-10T13:45:34;2.77;;;1.13;;
46729;SDS011;32476;50.002;11.854;2023-05-10T13:48:02;2.90;;;0.90;;
46729;SDS011;32476;50.002;11.854;2023-05-10T13:50:28;2.17;;;0.90;;
46729;SDS011;32476;50.002;11.854;2023-05-10T13:52:55;2.57;;;1.30;;
46729;SDS011;32476;50.002;11.854;2023-05-10T13:55:22;1.93;;;0.70;;
46729;SDS011;32476;50.002;11.854;2023-05-10T13:57:48;3.33;;;1.00;;
46729;SDS011;32476;50.002;11.854;2023-05-10T14:00:14;1.40;;;0.93;;
46729;SDS011;32476;50.002;11.854;2023-05-10T14:02:44;2.63;;;0.90;;
46729;SDS011;32476;50.002;11.854;2023-05-10T14:05:10;2.97;;;0.83;;
46729;SDS011;32476;50.002;11.854;2023-05-10T14:07:36;0.60;;;0.60;;
46729;SDS011;32476;50.002;11.854;2023-05-10T14:10:03;0.90;;;0.90;;
46729;SDS011;32476;50.002;11.854;2023-05-10T14:12:29;1.90;;;1.47;;
46729;SDS011;32476;50.002;11.854;2023-05-10T14:14:55;1.13;;;0.70;;
46729;SDS011;32476;50.002;11.854;2023-05-10T14:17:23;2.50;;;0.80;;
46729;SDS011;32476;50.002;11.854;2023-05-10T14:19:48;2.63;;;0.80;;
46729;SDS011;32476;50.002;11.854;2023-05-10T14:22:14;6.10;;;0.83;;
46729;SDS011;32476;50.002;11.854;2023-05-10T14:24:41;1.93;;;0.90;;
46729;SDS011;32476;50.002;11.854;2023-05-10T14:27:11;2.50;;;1.80;;
46729;SDS011;32476;50.002;11.854;2023-05-10T14:29:38;4.10;;;3.70;;
46729;SDS011;32476;50.002;11.854;2023-05-10T14:32:05;1.73;;;1.00;;
46729;SDS011;32476;50.002;11.854;2023-05-10T14:34:31;2.53;;;0.90;;
46729;SDS011;32476;50.002;11.854;2023-05-10T14:36:57;0.93;;;0.90;;
46729;SDS011;32476;50.002;11.854;2023-05-10T14:39:25;1.10;;;0.80;;
46729;SDS011;32476;50.002;11.854;2023-05-10T14:41:50;3.37;;;2.43;;
46729;SDS011;32476;50.002;11.854;2023-05-10T14:44:17;2.00;;;1.60;;
46729;SDS011;32476;50.002;11.854;2023-05-10T14:46:45;1.80;;;1.40;;
46729;SDS011;32476;50.002;11.854;2023-05-10T14:49:11;2.53;;;1.43;;
46729;SDS011;32476;50.002;11.854;2023-05-10T14:51:36;2.10;;;1.70;;
46729;SDS011;32476;50.002;11.854;2023-05-10T14:54:04;1.37;;;1.27;;
46729;SDS011;32476;50.002;11.854;2023-05-10T14:56:29;2.40;;;1.40;;
46729;SDS011;32476;50.002;11.854;2023-05-10T14:58:55;1.10;;;1.00;;
46729;SDS011;32476;50.002;11.854;2023-05-10T15:01:24;3.77;;;2.47;;
46729;SDS011;32476;50.002;11.854;2023-05-10T15:03:50;2.50;;;1.83;;
46729;SDS011;32476;50.002;11.854;2023-05-10T15:06:16;3.70;;;2.40;;